Terminal Aerodrome Forecast
Issued by NWS

Home | Current Version | Previous Version | Text Only | Print | Product List | Glossary On
Versions: 1 2 3 4 5 6 7 8 9 10 11 12 13 14 15 16 17 18 19 20 21 22
000
FTUS46 KSEW 302341
TAFBFI
TAF
KBFI 302341Z 3100/3124 18008KT P6SM SCT040 BKN080 BKN120
     FM310400 19008KT P6SM BKN060 OVC100
     FM311200 16008KT P6SM BKN030 OVC060
      TEMPO 3114/3116 3SM -RA BR BKN025 OVC040
     FM311800 20012KT P6SM -RA BKN040 OVC100=

USA.gov is the U.S. government's official web portal to all federal, state and local government web resources and services.